San Leon, Texas
Current Conditions -  °F | °C
As of 5:50 PM on Friday 28 Nov 2014 (Local Time) from KEFD Reporting Station
Scattered Clouds Scattered Clouds  
Wind Chill: 66°   Ceiling: Unl
Heat Index: 66°   Visibility: 10mi
Dew Point: 55°   Wind: 6mph
Humidity: 68%   Direction: 150°SSE
Pressure: 30.2"   Gusts: NA
Location:  29.4598°N, 95.0288°W
Report Text: KEFD 282350Z 15005KT 10SM SCT040 19/13 A3020
Loading
Personal Weather Stations






























Interactive Weather Map New forecast layout! Learn more

10-Day Weather Forecast

Advertisements
Track Severe Weather on mobile